Time,TemperatureF,DewpointF,PressureIn,WindDirection,WindDirectionDegrees,WindSpeedMPH,WindSpeedGustMPH,Humidity,HourlyPrecipIn,Conditions,Clouds,dailyrainin,SoftwareType,DateUTC
2013-07-26 07:50:00,60.9,58.6,30.04,NNE,18,0.0,0.0,92,0.00,,,0.00,Wunderground v.1.15,2013-07-26 11:50:00,
2013-07-26 07:55:00,60.9,58.6,30.04,NNE,18,0.0,0.0,92,0.00,,,0.00,Wunderground v.1.15,2013-07-26 11:55:00,
2013-07-26 08:00:00,61.0,58.7,30.04,NNE,18,0.0,0.0,92,0.00,,,0.00,Wunderground v.1.15,2013-07-26 12:00:00,
2013-07-26 08:05:00,61.1,58.8,30.04,NNE,19,0.0,0.0,92,0.00,,,0.00,Wunderground v.1.15,2013-07-26 12:05:00,
2013-07-26 08:10:00,61.1,58.8,30.04,NNE,18,0.0,0.0,92,0.00,,,0.00,Wunderground v.1.15,2013-07-26 12:10:00,
2013-07-26 08:15:00,61.2,58.9,30.03,NNE,18,0.0,0.0,92,0.00,,,0.00,Wunderground v.1.15,2013-07-26 12:15:00,
2013-07-26 08:25:00,61.2,58.9,30.03,NNE,18,0.0,0.0,92,0.00,,,0.00,Wunderground v.1.15,2013-07-26 12:25:00,
2013-07-26 08:30:00,61.3,59.0,30.03,NNE,18,0.0,0.0,92,0.00,,,0.00,Wunderground v.1.15,2013-07-26 12:30:00,
2013-07-26 08:35:00,61.3,58.7,30.03,NNE,18,0.0,0.0,91,0.00,,,0.00,Wunderground v.1.15,2013-07-26 12:35:00,
2013-07-26 08:40:00,61.4,58.7,30.03,NNE,19,0.0,0.0,91,0.00,,,0.00,Wunderground v.1.15,2013-07-26 12:40:00,
2013-07-26 08:45:00,61.6,58.6,30.03,NNE,18,0.0,0.0,90,0.00,,,0.00,Wunderground v.1.15,2013-07-26 12:45:00,
2013-07-26 08:50:00,61.8,59.1,30.03,NNE,18,0.0,0.0,91,0.00,,,0.00,Wunderground v.1.15,2013-07-26 12:50:00,
2013-07-26 09:00:00,62.0,58.7,30.03,NNE,21,0.0,0.0,89,0.00,,,0.00,Wunderground v.1.15,2013-07-26 13:00:00,
2013-07-26 09:05:00,62.2,58.9,30.03,NNE,22,0.0,0.0,89,0.00,,,0.00,Wunderground v.1.15,2013-07-26 13:05:00,
2013-07-26 09:15:00,62.4,58.8,30.02,NNE,23,0.0,0.0,88,0.00,,,0.00,Wunderground v.1.15,2013-07-26 13:15:00,
2013-07-26 09:20:00,62.5,59.2,30.02,NNE,23,0.0,0.0,89,0.00,,,0.00,Wunderground v.1.15,2013-07-26 13:20:00,
2013-07-26 09:25:00,62.7,59.4,30.02,NNE,23,0.0,0.0,89,0.00,,,0.00,Wunderground v.1.15,2013-07-26 13:25:00,
2013-07-26 09:35:00,62.8,59.8,30.02,NNE,26,0.0,0.0,90,0.00,,,0.00,Wunderground v.1.15,2013-07-26 13:35:00,
2013-07-26 09:40:00,62.7,59.4,30.02,NNE,26,0.0,0.0,89,0.00,,,0.00,Wunderground v.1.15,2013-07-26 13:40:00,
2013-07-26 09:50:00,62.8,59.8,30.02,NNE,26,0.0,0.0,90,0.00,,,0.00,Wunderground v.1.15,2013-07-26 13:50:00,
2013-07-26 09:55:00,62.8,59.8,30.02,NNE,26,0.0,0.0,90,0.00,,,0.00,Wunderground v.1.15,2013-07-26 13:55:00,
2013-07-26 10:05:00,62.6,59.9,30.02,NNE,26,0.0,0.0,91,0.00,,,0.00,Wunderground v.1.15,2013-07-26 14:05:00,
2013-07-26 10:10:00,62.4,59.7,30.02,NNE,26,0.0,0.0,91,0.00,,,0.00,Wunderground v.1.15,2013-07-26 14:10:00,
2013-07-26 10:20:00,62.5,60.1,30.02,NNE,26,0.0,0.0,92,0.00,,,0.00,Wunderground v.1.15,2013-07-26 14:20:00,
2013-07-26 10:25:00,62.6,60.2,30.01,NNE,26,0.0,0.0,92,0.00,,,0.00,Wunderground v.1.15,2013-07-26 14:25:00,
2013-07-26 10:30:00,62.8,60.4,30.01,NNE,26,0.0,0.0,92,0.00,,,0.00,Wunderground v.1.15,2013-07-26 14:30:00,
2013-07-26 10:40:00,62.8,59.8,30.01,ESE,110,0.0,0.0,90,0.00,,,0.00,Wunderground v.1.15,2013-07-26 14:40:00,
2013-07-26 10:45:00,62.9,59.9,30.01,SE,125,0.0,0.0,90,0.00,,,0.00,Wunderground v.1.15,2013-07-26 14:45:00,
2013-07-26 10:55:00,63.1,60.1,30.00,SE,125,0.0,0.0,90,0.00,,,0.00,Wunderground v.1.15,2013-07-26 14:55:00,
2013-07-26 11:00:00,63.4,60.7,30.00,SE,125,0.0,0.0,91,0.00,,,0.00,Wunderground v.1.15,2013-07-26 15:00:00,
2013-07-26 11:10:00,63.6,60.3,30.00,SE,136,0.0,0.0,89,0.00,,,0.00,Wunderground v.1.15,2013-07-26 15:10:00,
2013-07-26 11:15:00,63.8,60.2,30.00,SE,136,0.0,0.0,88,0.00,,,0.00,Wunderground v.1.15,2013-07-26 15:15:00,
2013-07-26 11:25:00,64.6,61.0,29.99,SE,135,0.0,0.0,88,0.00,,,0.00,Wunderground v.1.15,2013-07-26 15:25:00,
2013-07-26 11:30:00,65.0,61.0,29.99,SSE,150,0.0,0.0,87,0.00,,,0.00,Wunderground v.1.15,2013-07-26 15:30:00,
2013-07-26 11:40:00,65.7,61.4,29.98,SSE,150,0.0,0.0,86,0.00,,,0.00,Wunderground v.1.15,2013-07-26 15:40:00,
2013-07-26 11:45:00,65.9,61.9,29.98,SE,139,0.0,0.0,87,0.00,,,0.00,Wunderground v.1.15,2013-07-26 15:45:00,
2013-07-26 11:50:00,66.2,61.6,29.98,SSE,149,0.0,0.0,85,0.00,,,0.00,Wunderground v.1.15,2013-07-26 15:50:00,
2013-07-26 12:00:00,66.1,61.1,29.98,SE,135,0.0,1.0,84,0.00,,,0.00,Wunderground v.1.15,2013-07-26 16:00:00,
2013-07-26 12:10:00,66.2,61.2,29.97,SE,136,1.0,1.0,84,0.00,,,0.00,Wunderground v.1.15,2013-07-26 16:10:00,
2013-07-26 12:15:00,66.4,61.4,29.98,SE,145,0.0,1.0,84,0.00,,,0.00,Wunderground v.1.15,2013-07-26 16:15:00,
2013-07-26 12:20:00,66.4,61.4,29.97,SE,145,0.0,0.0,84,0.00,,,0.00,Wunderground v.1.15,2013-07-26 16:20:00,
2013-07-26 12:30:00,67.0,61.7,29.97,SE,131,0.0,0.0,83,0.00,,,0.00,Wunderground v.1.15,2013-07-26 16:30:00,
2013-07-26 12:35:00,67.3,61.6,29.97,SE,132,0.0,1.0,82,0.00,,,0.00,Wunderground v.1.15,2013-07-26 16:35:00,
2013-07-26 12:45:00,67.8,61.8,29.96,SSE,158,1.0,2.0,81,0.00,,,0.00,Wunderground v.1.15,2013-07-26 16:45:00,
2013-07-26 12:50:00,67.8,62.1,29.96,SSE,154,1.0,1.0,82,0.00,,,0.00,Wunderground v.1.15,2013-07-26 16:50:00,
2013-07-26 13:00:00,67.8,62.4,29.96,SSE,159,0.0,0.0,83,0.00,,,0.00,Wunderground v.1.15,2013-07-26 17:00:00,
2013-07-26 13:05:00,68.0,63.7,29.96,SSE,159,0.0,0.0,86,0.00,,,0.00,Wunderground v.1.15,2013-07-26 17:05:00,
2013-07-26 13:15:00,68.1,62.7,29.95,SSE,152,0.0,1.0,83,0.00,,,0.00,Wunderground v.1.15,2013-07-26 17:15:00,
2013-07-26 13:20:00,68.2,62.8,29.95,SSE,165,1.0,2.0,83,0.00,,,0.00,Wunderground v.1.15,2013-07-26 17:20:00,
2013-07-26 13:30:00,68.6,63.6,29.94,SSE,166,1.0,1.0,84,0.00,,,0.00,Wunderground v.1.15,2013-07-26 17:30:00,
2013-07-26 13:35:00,69.0,63.6,29.94,SSE,160,0.0,1.0,83,0.00,,,0.00,Wunderground v.1.15,2013-07-26 17:35:00,
2013-07-26 13:45:00,69.4,63.3,29.94,SSW,211,0.0,0.0,81,0.00,,,0.00,Wunderground v.1.15,2013-07-26 17:45:00,
2013-07-26 13:50:00,69.5,63.4,29.93,SSE,153,0.0,0.0,81,0.00,,,0.00,Wunderground v.1.15,2013-07-26 17:50:00,
2013-07-26 13:55:00,69.7,62.5,29.94,SSE,156,1.0,1.0,78,0.00,,,0.00,Wunderground v.1.15,2013-07-26 17:55:00,
2013-07-26 14:05:00,69.7,62.9,29.94,SSW,204,1.0,2.0,79,0.00,,,0.00,Wunderground v.1.15,2013-07-26 18:05:00,
2013-07-26 14:10:00,69.8,62.6,29.94,SSE,165,1.0,3.0,78,0.00,,,0.00,Wunderground v.1.15,2013-07-26 18:10:00,
2013-07-26 14:20:00,70.0,62.8,29.93,South,173,1.0,1.0,78,0.00,,,0.00,Wunderground v.1.15,2013-07-26 18:20:00,
2013-07-26 14:25:00,70.1,63.3,29.93,SSE,159,0.0,1.0,79,0.00,,,0.00,Wunderground v.1.15,2013-07-26 18:25:00,
2013-07-26 14:30:00,70.1,63.3,29.93,SSE,164,0.0,0.0,79,0.00,,,0.00,Wunderground v.1.15,2013-07-26 18:30:00,
2013-07-26 14:40:00,70.5,62.6,29.93,West,277,0.0,0.0,76,0.00,,,0.00,Wunderground v.1.15,2013-07-26 18:40:00,
2013-07-26 14:45:00,71.0,61.1,29.93,SSE,148,0.0,0.0,71,0.00,,,0.00,Wunderground v.1.15,2013-07-26 18:45:00,
2013-07-26 14:55:00,71.2,61.7,29.93,SSE,153,1.0,5.0,72,0.00,,,0.00,Wunderground v.1.15,2013-07-26 18:55:00,
2013-07-26 15:00:00,71.1,62.0,29.92,WNW,285,1.0,1.0,73,0.00,,,0.00,Wunderground v.1.15,2013-07-26 19:00:00,
2013-07-26 15:05:00,70.8,61.3,29.92,NNE,20,1.0,3.0,72,0.00,,,0.00,Wunderground v.1.15,2013-07-26 19:05:00,
2013-07-26 15:15:00,70.7,61.6,29.93,NE,56,1.0,1.0,73,0.00,,,0.00,Wunderground v.1.15,2013-07-26 19:15:00,
2013-07-26 15:20:00,70.7,61.6,29.93,NNE,15,1.0,1.0,73,0.00,,,0.00,Wunderground v.1.15,2013-07-26 19:20:00,
2013-07-26 15:30:00,70.5,62.6,29.93,NE,45,1.0,1.0,76,0.00,,,0.00,Wunderground v.1.15,2013-07-26 19:30:00,
2013-07-26 15:35:00,70.2,62.6,29.92,SE,131,0.0,1.0,77,0.00,,,0.00,Wunderground v.1.15,2013-07-26 19:35:00,
2013-07-26 15:45:00,70.3,64.2,29.92,SE,128,0.0,0.0,81,0.00,,,0.00,Wunderground v.1.15,2013-07-26 19:45:00,
2013-07-26 15:50:00,70.4,63.9,29.92,SSE,162,0.0,0.0,80,0.00,,,0.00,Wunderground v.1.15,2013-07-26 19:50:00,
2013-07-26 16:00:00,70.2,61.5,29.92,NNW,343,1.0,5.0,74,0.00,,,0.00,Wunderground v.1.15,2013-07-26 20:00:00,
2013-07-26 16:05:00,70.3,60.8,29.92,NNE,15,3.0,6.0,72,0.00,,,0.00,Wunderground v.1.15,2013-07-26 20:05:00,
2013-07-26 16:10:00,70.6,61.5,29.92,NW,312,2.0,2.0,73,0.00,,,0.00,Wunderground v.1.15,2013-07-26 20:10:00,
2013-07-26 16:20:00,71.0,61.1,29.92,East,80,1.0,1.0,71,0.00,,,0.00,Wunderground v.1.15,2013-07-26 20:20:00,
2013-07-26 16:25:00,71.0,61.5,29.92,SE,145,1.0,1.0,72,0.00,,,0.00,Wunderground v.1.15,2013-07-26 20:25:00,
2013-07-26 16:35:00,70.9,61.4,29.92,NW,323,2.0,2.0,72,0.00,,,0.00,Wunderground v.1.15,2013-07-26 20:35:00,
2013-07-26 16:40:00,70.8,60.9,29.92,NNE,22,2.0,2.0,71,0.00,,,0.00,Wunderground v.1.15,2013-07-26 20:40:00,
2013-07-26 16:50:00,70.8,62.1,29.92,SSW,204,1.0,1.0,74,0.00,,,0.00,Wunderground v.1.15,2013-07-26 20:50:00,
2013-07-26 16:55:00,70.7,62.0,29.92,WNW,283,1.0,2.0,74,0.00,,,0.00,Wunderground v.1.15,2013-07-26 20:55:00,
2013-07-26 17:00:00,70.6,61.1,29.92,NW,325,2.0,2.0,72,0.00,,,0.00,Wunderground v.1.15,2013-07-26 21:00:00,
2013-07-26 17:10:00,70.6,61.5,29.91,NNE,25,1.0,1.0,73,0.00,,,0.00,Wunderground v.1.15,2013-07-26 21:10:00,
2013-07-26 17:15:00,70.4,60.9,29.91,NNW,339,2.0,2.0,72,0.00,,,0.00,Wunderground v.1.15,2013-07-26 21:15:00,
2013-07-26 17:25:00,70.2,61.1,29.91,WSW,242,2.0,3.0,73,0.00,,,0.00,Wunderground v.1.15,2013-07-26 21:25:00,
2013-07-26 17:30:00,70.0,60.9,29.91,WNW,283,1.0,1.0,73,0.00,,,0.00,Wunderground v.1.15,2013-07-26 21:30:00,
2013-07-26 17:35:00,69.8,60.8,29.91,North,5,1.0,1.0,73,0.00,,,0.00,Wunderground v.1.15,2013-07-26 21:35:00,
2013-07-26 17:45:00,69.2,61.7,29.91,South,187,0.0,0.0,77,0.00,,,0.00,Wunderground v.1.15,2013-07-26 21:45:00,
2013-07-26 17:50:00,68.8,62.0,29.91,South,169,0.0,0.0,79,0.00,,,0.00,Wunderground v.1.15,2013-07-26 21:50:00,
2013-07-26 18:00:00,67.8,62.4,29.91,SSE,165,0.0,0.0,83,0.00,,,0.00,Wunderground v.1.15,2013-07-26 22:00:00,
2013-07-26 18:05:00,67.4,63.1,29.91,East,95,0.0,0.0,86,0.00,,,0.00,Wunderground v.1.15,2013-07-26 22:05:00,
2013-07-26 18:15:00,66.8,63.1,29.91,NE,49,0.0,0.0,88,0.00,,,0.00,Wunderground v.1.15,2013-07-26 22:15:00,
2013-07-26 18:20:00,66.7,63.7,29.91,North,8,0.0,0.0,90,0.00,,,0.00,Wunderground v.1.15,2013-07-26 22:20:00,
2013-07-26 18:30:00,66.6,63.6,29.90,East,84,0.0,0.0,90,0.00,,,0.00,Wunderground v.1.15,2013-07-26 22:30:00,
2013-07-26 18:35:00,66.6,63.3,29.90,NE,44,0.0,0.0,89,0.00,,,0.00,Wunderground v.1.15,2013-07-26 22:35:00,
2013-07-26 18:45:00,66.6,62.3,29.90,ESE,115,0.0,1.0,86,0.00,,,0.00,Wunderground v.1.15,2013-07-26 22:45:00,
2013-07-26 18:50:00,66.5,62.2,29.90,ESE,117,0.0,2.0,86,0.00,,,0.00,Wunderground v.1.15,2013-07-26 22:50:00,
2013-07-26 18:55:00,66.3,62.0,29.90,ESE,107,1.0,2.0,86,0.00,,,0.00,Wunderground v.1.15,2013-07-26 22:55:00,
2013-07-26 19:05:00,66.1,62.1,29.90,WNW,285,0.0,1.0,87,0.00,,,0.00,Wunderground v.1.15,2013-07-26 23:05:00,
2013-07-26 19:15:00,65.8,61.8,29.90,NNE,32,0.0,1.0,87,0.00,,,0.00,Wunderground v.1.15,2013-07-26 23:15:00,
2013-07-26 19:20:00,65.7,62.0,29.90,NNE,33,0.0,0.0,88,0.00,,,0.00,Wunderground v.1.15,2013-07-26 23:20:00,
2013-07-26 19:30:00,65.5,62.2,29.90,NNE,33,0.0,0.0,89,0.00,,,0.00,Wunderground v.1.15,2013-07-26 23:30:00,
2013-07-26 19:35:00,65.4,62.1,29.90,NNE,33,0.0,0.0,89,0.00,,,0.00,Wunderground v.1.15,2013-07-26 23:35:00,
2013-07-26 19:45:00,65.3,62.0,29.90,SE,125,0.0,0.0,89,0.00,,,0.00,Wunderground v.1.15,2013-07-26 23:45:00,
2013-07-26 19:50:00,65.3,62.3,29.90,North,358,0.0,0.0,90,0.00,,,0.00,Wunderground v.1.15,2013-07-26 23:50:00,
2013-07-26 20:00:00,65.2,61.9,29.90,NE,36,1.0,1.0,89,0.00,,,0.00,Wunderground v.1.15,2013-07-27 00:00:00,
2013-07-26 20:05:00,65.3,61.7,29.90,NNE,32,1.0,1.0,88,0.00,,,0.00,Wunderground v.1.15,2013-07-27 00:05:00,
2013-07-26 20:10:00,65.3,61.7,29.91,NNE,15,1.0,1.0,88,0.00,,,0.00,Wunderground v.1.15,2013-07-27 00:10:00,
2013-07-26 20:20:00,65.4,61.4,29.91,SSE,159,0.0,0.0,87,0.00,,,0.00,Wunderground v.1.15,2013-07-27 00:20:00,
2013-07-26 20:25:00,65.6,61.6,29.91,SE,128,0.0,0.0,87,0.00,,,0.00,Wunderground v.1.15,2013-07-27 00:25:00,
2013-07-26 20:35:00,65.7,61.4,29.91,ENE,72,0.0,0.0,86,0.00,,,0.00,Wunderground v.1.15,2013-07-27 00:35:00,
2013-07-26 20:40:00,65.6,61.3,29.91,ENE,76,0.0,0.0,86,0.00,,,0.00,Wunderground v.1.15,2013-07-27 00:40:00,
2013-07-26 20:45:00,65.4,61.8,29.91,ENE,76,0.0,0.0,88,0.00,,,0.00,Wunderground v.1.15,2013-07-27 00:45:00,
2013-07-26 20:55:00,65.0,61.7,29.90,ENE,78,0.0,0.0,89,0.00,,,0.00,Wunderground v.1.15,2013-07-27 00:55:00,
2013-07-26 21:00:00,65.1,61.5,29.90,East,81,0.0,0.0,88,0.00,,,0.00,Wunderground v.1.15,2013-07-27 01:00:00,
2013-07-26 21:10:00,65.3,61.3,29.90,SSE,150,0.0,0.0,87,0.00,,,0.00,Wunderground v.1.15,2013-07-27 01:10:00,
2013-07-26 21:15:00,65.3,61.3,29.90,South,187,1.0,1.0,87,0.00,,,0.00,Wunderground v.1.15,2013-07-27 01:15:00,
2013-07-26 21:25:00,65.4,61.1,29.90,South,173,1.0,1.0,86,0.00,,,0.00,Wunderground v.1.15,2013-07-27 01:25:00,
2013-07-26 21:30:00,65.7,60.7,29.91,SSE,158,0.0,0.0,84,0.00,,,0.00,Wunderground v.1.15,2013-07-27 01:30:00,
2013-07-26 21:40:00,66.1,60.8,29.91,ENE,57,1.0,1.0,83,0.00,,,0.00,Wunderground v.1.15,2013-07-27 01:40:00,
2013-07-26 21:45:00,66.4,60.7,29.91,SE,128,1.0,1.0,82,0.00,,,0.00,Wunderground v.1.15,2013-07-27 01:45:00,
2013-07-26 21:55:00,66.3,61.0,29.90,SE,139,0.0,2.0,83,0.00,,,0.00,Wunderground v.1.15,2013-07-27 01:55:00,
2013-07-26 22:00:00,66.2,61.2,29.90,SE,128,1.0,1.0,84,0.00,,,0.00,Wunderground v.1.15,2013-07-27 02:00:00,
2013-07-26 22:05:00,66.1,61.5,29.90,ENE,58,0.0,1.0,85,0.00,,,0.00,Wunderground v.1.15,2013-07-27 02:05:00,
2013-07-26 22:15:00,66.2,60.9,29.90,ESE,114,0.0,0.0,83,0.00,,,0.00,Wunderground v.1.15,2013-07-27 02:15:00,
2013-07-26 22:20:00,66.3,61.0,29.90,SSE,150,0.0,0.0,83,0.00,,,0.00,Wunderground v.1.15,2013-07-27 02:20:00,
2013-07-26 22:30:00,66.0,61.0,29.90,NNE,28,0.0,0.0,84,0.00,,,0.00,Wunderground v.1.15,2013-07-27 02:30:00,
2013-07-26 22:35:00,66.0,61.0,29.90,ESE,113,0.0,0.0,84,0.00,,,0.00,Wunderground v.1.15,2013-07-27 02:35:00,
2013-07-26 22:40:00,66.0,61.0,29.90,SSW,201,0.0,0.0,84,0.00,,,0.00,Wunderground v.1.15,2013-07-27 02:40:00,